Time;durP1;ratioP1;P1;durP2;ratioP2;P2;SDS_P1;SDS_P2;PMS_P1;PMS_P2;Temp;Humidity;BMP_temperature;BMP_pressure;BME280_temperature;BME280_humidity;BME280_pressure;Samples;Min_cycle;Max_cycle;Signal;HPM_P1;HPM_P2
2023/03/21 05:05:37;;;;;;;2.47;2.38;;;8.90;99.90;;;;;;5230000;23;20247;-74
2023/03/21 05:08:04;;;;;;;3.15;2.88;;;8.80;99.90;;;;;;4955509;29;20173;-74
2023/03/21 05:10:30;;;;;;;3.20;3.00;;;8.80;99.90;;;;;;4956783;28;20180;-74
2023/03/21 05:12:56;;;;;;;3.00;2.80;;;8.70;99.90;;;;;;4956641;28;20754;-73
2023/03/21 05:15:21;;;;;;;3.07;2.80;;;8.70;99.90;;;;;;4955255;28;20459;-74
2023/03/21 05:17:47;;;;;;;3.37;3.10;;;8.70;99.90;;;;;;4956237;28;20187;-74
2023/03/21 05:20:14;;;;;;;3.07;2.87;;;8.60;99.90;;;;;;4956571;28;20169;-74
2023/03/21 05:22:40;;;;;;;3.70;3.40;;;8.60;99.90;;;;;;4956407;28;20448;-73
2023/03/21 05:25:07;;;;;;;3.03;2.83;;;8.60;99.90;;;;;;4955914;28;20193;-74
2023/03/21 05:27:34;;;;;;;4.07;3.67;;;8.70;99.90;;;;;;4956488;28;20177;-74
2023/03/21 05:30:14;;;;;;;3.58;3.28;;;8.70;99.90;;;;;;4956154;28;20180;-74
2023/03/21 05:32:40;;;;;;;3.03;2.80;;;8.70;99.90;;;;;;4956383;28;20512;-74
2023/03/21 05:35:06;;;;;;;2.90;2.70;;;8.70;99.90;;;;;;4954515;28;20203;-74
2023/03/21 05:37:32;;;;;;;4.65;3.20;;;8.70;99.90;;;;;;4956265;28;20404;-74
2023/03/21 05:39:58;;;;;;;8.00;4.97;;;8.80;99.90;;;;;;4956311;28;20689;-75
2023/03/21 05:42:24;;;;;;;3.20;2.90;;;8.80;99.90;;;;;;4956077;28;20264;-74
2023/03/21 05:44:50;;;;;;;3.47;3.17;;;8.90;99.90;;;;;;4955305;28;20197;-74
2023/03/21 05:47:17;;;;;;;3.47;3.22;;;8.90;99.90;;;;;;4956009;28;20177;-73
2023/03/21 05:49:44;;;;;;;3.60;3.20;;;9.00;99.90;;;;;;4955594;28;20651;-73
2023/03/21 05:52:10;;;;;;;2.38;2.28;;;9.00;99.90;;;;;;4955240;28;20651;-74
2023/03/21 05:54:36;;;;;;;6.57;3.85;;;8.90;99.90;;;;;;4955719;28;20308;-74
2023/03/21 05:57:03;;;;;;;3.78;2.80;;;9.00;99.90;;;;;;4955629;28;20204;-74
2023/03/21 05:59:28;;;;;;;3.60;3.30;;;9.00;99.90;;;;;;4955297;28;20164;-74
2023/03/21 06:01:54;;;;;;;5.70;2.93;;;9.00;99.90;;;;;;4955417;28;20175;-74
2023/03/21 06:04:19;;;;;;;2.63;2.53;;;9.00;99.90;;;;;;4955158;28;20204;-73
2023/03/21 06:06:45;;;;;;;3.40;3.13;;;9.10;99.90;;;;;;4955653;28;20185;-74
2023/03/21 06:09:12;;;;;;;3.33;2.90;;;9.10;99.90;;;;;;4955931;28;20247;-74
2023/03/21 06:11:43;;;;;;;3.45;3.25;;;9.20;99.90;;;;;;4955696;28;20515;-74
2023/03/21 06:14:08;;;;;;;2.70;2.50;;;9.20;99.90;;;;;;4955235;28;20200;-75
2023/03/21 06:16:36;;;;;;;3.23;2.70;;;9.30;99.90;;;;;;4955729;28;20489;-75
2023/03/21 06:19:01;;;;;;;3.08;2.78;;;9.30;99.90;;;;;;4954497;28;20346;-69
2023/03/21 06:21:27;;;;;;;3.80;3.30;;;9.40;99.90;;;;;;4955183;28;20263;-72
2023/03/21 06:23:52;;;;;;;2.93;2.73;;;9.40;99.90;;;;;;4954993;28;20279;-73
2023/03/21 06:26:21;;;;;;;4.17;2.93;;;9.40;99.90;;;;;;4955305;28;20173;-73
2023/03/21 06:28:48;;;;;;;3.15;2.95;;;9.40;99.90;;;;;;4955576;28;20497;-72
2023/03/21 06:31:14;;;;;;;4.07;3.78;;;9.50;99.90;;;;;;4955228;28;20161;-72
2023/03/21 06:33:40;;;;;;;3.22;3.03;;;9.60;99.90;;;;;;4953669;28;20500;-72
2023/03/21 06:36:06;;;;;;;4.17;3.77;;;9.60;99.90;;;;;;4953746;28;20181;-70
2023/03/21 06:38:32;;;;;;;2.78;2.58;;;9.70;99.90;;;;;;4955214;28;20165;-74
2023/03/21 06:40:57;;;;;;;3.30;3.00;;;9.80;99.90;;;;;;4955455;28;20507;-73
2023/03/21 06:43:23;;;;;;;3.30;3.00;;;9.90;99.90;;;;;;4954841;28;20193;-73
2023/03/21 06:45:49;;;;;;;3.70;3.23;;;10.00;99.90;;;;;;4953470;29;20192;-73
2023/03/21 06:48:18;;;;;;;4.90;3.57;;;10.10;99.90;;;;;;4952828;29;20700;-74
2023/03/21 06:50:43;;;;;;;5.25;3.13;;;10.20;99.90;;;;;;4954003;29;20189;-74
2023/03/21 06:53:09;;;;;;;3.00;2.47;;;10.30;99.90;;;;;;4954740;28;20180;-76
2023/03/21 06:55:34;;;;;;;2.40;2.20;;;10.40;99.90;;;;;;4955197;28;20197;-73
2023/03/21 06:58:00;;;;;;;2.87;2.67;;;10.50;99.90;;;;;;4955202;28;20179;-73
2023/03/21 07:00:25;;;;;;;3.20;2.97;;;10.60;99.90;;;;;;4955315;28;20256;-75
2023/03/21 07:02:52;;;;;;;2.90;2.40;;;10.70;99.90;;;;;;4954460;29;20197;-72
2023/03/21 07:05:18;;;;;;;3.80;3.30;;;10.90;99.90;;;;;;4954461;28;20612;-73
2023/03/21 07:07:44;;;;;;;3.27;2.77;;;11.00;99.90;;;;;;4954103;28;20442;-73
2023/03/21 07:10:10;;;;;;;3.67;3.37;;;11.20;99.90;;;;;;4938390;29;20175;-73
2023/03/21 07:12:35;;;;;;;3.10;2.90;;;11.30;99.90;;;;;;4938024;28;20190;-74
2023/03/21 07:15:03;;;;;;;3.40;3.10;;;11.40;99.90;;;;;;4935520;29;20435;-73
2023/03/21 07:17:29;;;;;;;3.13;2.80;;;11.60;99.90;;;;;;4945485;29;20180;-73
2023/03/21 07:19:54;;;;;;;3.63;3.33;;;11.60;99.90;;;;;;4954996;28;20469;-72
2023/03/21 07:22:20;;;;;;;4.93;3.00;;;11.70;99.90;;;;;;4954940;28;20446;-73
2023/03/21 07:24:48;;;;;;;4.40;3.27;;;12.00;99.90;;;;;;4954387;28;20196;-73
2023/03/21 07:27:15;;;;;;;3.37;3.03;;;12.20;99.90;;;;;;4954968;28;20404;-71
2023/03/21 07:29:42;;;;;;;4.10;3.30;;;12.80;99.90;;;;;;4956789;28;20412;-73
2023/03/21 07:32:09;;;;;;;3.60;3.30;;;13.60;99.90;;;;;;4958066;28;20510;-73
2023/03/21 07:34:35;;;;;;;3.80;3.40;;;14.50;99.90;;;;;;4957350;28;20451;-75
2023/03/21 07:37:01;;;;;;;2.90;2.70;;;15.30;99.90;;;;;;4958163;28;20546;-75
2023/03/21 07:39:27;;;;;;;4.20;3.27;;;16.10;99.90;;;;;;4957980;28;20184;-73
2023/03/21 07:41:56;;;;;;;3.00;2.80;;;16.90;99.90;;;;;;4956846;29;20181;-74
2023/03/21 07:44:22;;;;;;;3.70;3.27;;;17.50;99.70;;;;;;4957620;28;20438;-73
2023/03/21 07:46:48;;;;;;;2.70;2.50;;;18.00;99.40;;;;;;4956659;28;20918;-75
2023/03/21 07:49:13;;;;;;;3.10;2.90;;;18.50;97.60;;;;;;4958052;28;20394;-72
2023/03/21 07:51:39;;;;;;;3.20;3.00;;;19.20;96.20;;;;;;4958231;28;20179;-74
2023/03/21 07:54:05;;;;;;;3.57;3.27;;;19.80;95.70;;;;;;4956301;29;20209;-75
2023/03/21 07:56:30;;;;;;;6.20;2.27;;;20.60;93.40;;;;;;4957895;28;20269;-75
2023/03/21 07:58:57;;;;;;;2.47;2.27;;;21.20;92.20;;;;;;4957845;28;20496;-75
2023/03/21 08:01:24;;;;;;;3.57;3.10;;;21.90;90.80;;;;;;4958139;28;20521;-74
2023/03/21 08:03:52;;;;;;;2.30;2.13;;;22.40;86.90;;;;;;4957587;29;20435;-73
2023/03/21 08:06:18;;;;;;;3.80;3.37;;;22.70;87.60;;;;;;4957513;28;20482;-72
2023/03/21 08:08:45;;;;;;;3.47;3.17;;;23.10;83.10;;;;;;4957907;28;20396;-73
2023/03/21 08:11:11;;;;;;;3.10;2.80;;;23.20;81.70;;;;;;4957941;28;20413;-72
2023/03/21 08:13:37;;;;;;;2.70;2.60;;;23.20;82.00;;;;;;4957451;28;20417;-75
2023/03/21 08:16:03;;;;;;;3.60;3.30;;;23.40;80.70;;;;;;4957693;28;20386;-73
2023/03/21 08:18:29;;;;;;;3.00;2.40;;;23.50;81.10;;;;;;4957854;28;20387;-76
2023/03/21 08:20:55;;;;;;;3.00;2.80;;;23.60;80.80;;;;;;4957357;28;20515;-72
2023/03/21 08:23:22;;;;;;;3.60;3.30;;;23.60;79.60;;;;;;4957122;28;20200;-74
2023/03/21 08:25:52;;;;;;;3.67;3.13;;;23.70;79.30;;;;;;4957503;28;20431;-72
2023/03/21 08:28:18;;;;;;;2.77;2.57;;;24.20;78.00;;;;;;4956912;28;20429;-75
2023/03/21 08:30:43;;;;;;;2.70;2.50;;;24.50;76.60;;;;;;4956968;28;20406;-72
2023/03/21 08:33:09;;;;;;;9.10;3.13;;;24.90;76.30;;;;;;4957076;28;20187;-75
2023/03/21 08:35:35;;;;;;;3.63;3.33;;;25.20;74.10;;;;;;4957336;28;20209;-73
2023/03/21 08:38:02;;;;;;;3.37;2.30;;;25.50;73.50;;;;;;4957661;28;20169;-74
2023/03/21 08:40:28;;;;;;;2.40;2.20;;;25.90;71.70;;;;;;4956577;28;20409;-74
2023/03/21 08:42:54;;;;;;;2.93;2.73;;;26.10;72.00;;;;;;4957113;28;20436;-74
2023/03/21 08:45:20;;;;;;;2.90;2.60;;;26.60;68.40;;;;;;4956607;28;20203;-76
2023/03/21 08:47:46;;;;;;;4.40;2.30;;;27.10;67.00;;;;;;4957279;28;20185;-72
2023/03/21 08:50:15;;;;;;;1.83;1.73;;;27.30;65.00;;;;;;4957268;28;20707;-74
2023/03/21 08:52:41;;;;;;;2.77;1.93;;;27.30;66.20;;;;;;4957152;28;20527;-72
2023/03/21 08:55:07;;;;;;;1.80;1.70;;;27.40;65.20;;;;;;4956409;28;20524;-73
2023/03/21 08:57:34;;;;;;;2.60;2.27;;;27.90;63.40;;;;;;4957054;28;20255;-74
2023/03/21 08:59:59;;;;;;;3.90;1.97;;;28.40;61.40;;;;;;4957050;29;20410;-74
2023/03/21 09:02:25;;;;;;;1.87;1.77;;;28.70;59.70;;;;;;4957016;28;20440;-75
2023/03/21 09:04:53;;;;;;;2.07;1.90;;;28.80;59.50;;;;;;4956440;28;20223;-75
2023/03/21 09:07:20;;;;;;;2.10;2.00;;;28.70;58.90;;;;;;4956882;28;20519;-75
2023/03/21 09:09:46;;;;;;;2.23;2.07;;;28.50;59.00;;;;;;4956977;28;20432;-74
2023/03/21 09:12:12;;;;;;;1.80;1.70;;;28.50;59.30;;;;;;4956581;28;20862;-75
2023/03/21 09:14:38;;;;;;;2.00;1.90;;;28.30;59.30;;;;;;4956187;28;20219;-73
2023/03/21 09:17:03;;;;;;;2.07;1.87;;;28.50;59.00;;;;;;4956612;28;20173;-74
2023/03/21 09:19:30;;;;;;;2.00;1.90;;;28.90;58.20;;;;;;4956090;28;20643;-75
2023/03/21 09:21:56;;;;;;;3.70;1.83;;;29.10;57.00;;;;;;4956428;28;20169;-74
2023/03/21 09:24:23;;;;;;;2.53;2.33;;;29.20;56.30;;;;;;4955891;28;20523;-73
2023/03/21 09:26:50;;;;;;;1.70;1.60;;;29.50;56.20;;;;;;4956346;28;20413;-74
2023/03/21 09:29:18;;;;;;;1.80;1.70;;;29.30;56.60;;;;;;4956491;28;20417;-74
2023/03/21 09:31:45;;;;;;;2.07;1.97;;;29.00;55.90;;;;;;4956242;28;20408;-73
2023/03/21 09:34:14;;;;;;;1.90;1.80;;;28.80;56.10;;;;;;4955458;28;20499;-73
2023/03/21 09:36:41;;;;;;;2.07;1.87;;;28.30;56.90;;;;;;4956329;28;20413;-73
2023/03/21 09:39:07;;;;;;;2.00;1.90;;;27.50;56.40;;;;;;4956289;28;20383;-73
2023/03/21 09:41:51;;;;;;;2.53;1.97;;;26.50;58.80;;;;;;4955708;28;20431;-73
2023/03/21 09:44:23;;;;;;;1.87;1.77;;;26.00;58.60;;;;;;4954399;28;20565;-73
2023/03/21 09:47:31;;;;;;;2.20;2.00;;;26.00;59.30;;;;;;4956176;28;20407;-75
2023/03/21 09:50:07;;;;;;;1.87;1.77;;;26.10;58.10;;;;;;4956168;28;20844;-77
2023/03/21 09:52:42;;;;;;;2.03;1.93;;;26.10;57.40;;;;;;4954632;28;20726;-73
2023/03/21 09:55:18;;;;;;;2.27;2.00;;;25.50;58.20;;;;;;4955173;28;20950;-74
2023/03/21 09:57:48;;;;;;;3.07;2.87;;;25.20;58.10;;;;;;4956162;28;20406;-79
2023/03/21 10:00:28;;;;;;;1.70;1.60;;;24.80;58.70;;;;;;4955778;28;20386;-74
2023/03/21 10:02:58;;;;;;;2.43;1.83;;;24.30;58.30;;;;;;4955934;28;20401;-73
2023/03/21 10:05:27;;;;;;;2.00;1.90;;;24.30;59.80;;;;;;4955701;28;20459;-76
2023/03/21 10:08:21;;;;;;;1.80;1.70;;;24.20;61.10;;;;;;4954355;29;20502;-80
2023/03/21 10:10:50;;;;;;;2.00;1.90;;;24.10;59.10;;;;;;4934945;29;20414;-79
2023/03/21 10:13:20;;;;;;;2.03;1.93;;;24.00;59.30;;;;;;4935026;29;21228;-77
2023/03/21 10:15:46;;;;;;;2.43;2.23;;;23.80;60.70;;;;;;4935062;29;20456;-77
2023/03/21 10:18:21;;;;;;;2.17;2.07;;;23.50;62.80;;;;;;4934429;29;20429;-78
2023/03/21 10:20:48;;;;;;;1.60;1.50;;;22.90;63.20;;;;;;4935087;29;20197;-76
2023/03/21 10:23:16;;;;;;;1.90;1.80;;;22.10;63.80;;;;;;4935037;29;20565;-77
2023/03/21 10:25:57;;;;;;;1.63;1.53;;;21.80;63.00;;;;;;4902936;29;20426;-76
2023/03/21 10:28:29;;;;;;;4.63;2.27;;;21.50;62.00;;;;;;4920444;29;20473;-79
2023/03/21 10:31:06;;;;;;;1.90;1.80;;;21.20;64.00;;;;;;4934861;29;20451;-78
2023/03/21 10:33:42;;;;;;;1.83;1.73;;;20.80;64.80;;;;;;4936239;29;20453;-78
2023/03/21 10:36:19;;;;;;;6.00;2.50;;;20.60;66.00;;;;;;4936437;29;20429;-78
2023/03/21 10:38:49;;;;;;;1.90;1.73;;;20.50;66.10;;;;;;4934844;29;20962;-77
2023/03/21 10:41:15;;;;;;;4.20;1.70;;;20.50;66.10;;;;;;4934965;29;20384;-77
2023/03/21 10:43:43;;;;;;;2.80;2.00;;;20.60;66.50;;;;;;4934126;29;20476;-77
2023/03/21 10:46:20;;;;;;;1.87;1.77;;;20.60;66.60;;;;;;4934180;29;20430;-77
2023/03/21 10:48:51;;;;;;;7.23;2.20;;;21.10;65.50;;;;;;4946733;29;20483;-78
2023/03/21 10:51:27;;;;;;;3.07;2.20;;;21.20;66.60;;;;;;4957568;28;20405;-76
2023/03/21 10:53:57;;;;;;;1.87;1.57;;;21.50;66.60;;;;;;4954839;28;20830;-76
2023/03/21 10:56:27;;;;;;;2.13;1.70;;;21.90;65.10;;;;;;4954873;28;20406;-76
2023/03/21 10:58:58;;;;;;;2.07;1.97;;;21.80;64.10;;;;;;4955241;28;20407;-75
2023/03/21 11:01:35;;;;;;;2.60;1.97;;;21.90;63.40;;;;;;4953492;29;20772;-75
2023/03/21 11:04:28;;;;;;;5.07;1.83;;;22.00;64.40;;;;;;4955786;28;20431;-76
2023/03/21 11:07:02;;;;;;;2.80;1.70;;;21.90;63.90;;;;;;4953495;28;20955;-75
2023/03/21 11:09:54;;;;;;;1.80;1.70;;;21.30;66.40;;;;;;4959047;28;20408;-77
2023/03/21 11:12:36;;;;;;;1.77;1.63;;;21.00;67.80;;;;;;4952988;29;20412;-76
2023/03/21 11:15:23;;;;;;;5.47;2.40;;;21.10;67.90;;;;;;4958383;28;20756;-76
2023/03/21 11:17:49;;;;;;;2.27;2.13;;;21.20;68.60;;;;;;4958914;28;20382;-76
2023/03/21 11:20:20;;;;;;;1.90;1.80;;;21.30;68.00;;;;;;4958928;28;20496;-77
2023/03/21 11:22:47;;;;;;;1.80;1.70;;;21.30;68.70;;;;;;4958821;28;20384;-76
2023/03/21 11:25:40;;;;;;;1.80;1.70;;;21.20;70.30;;;;;;4958109;28;20399;-77
2023/03/21 11:28:13;;;;;;;3.10;2.50;;;21.10;68.20;;;;;;4957492;29;20412;-76
2023/03/21 11:30:57;;;;;;;1.70;1.60;;;20.90;69.10;;;;;;4958172;28;20443;-77
2023/03/21 11:33:32;;;;;;;1.80;1.70;;;20.90;68.30;;;;;;4958161;28;20427;-78
2023/03/21 11:36:32;;;;;;;1.77;1.67;;;20.50;68.60;;;;;;4957963;28;20494;-76
2023/03/21 11:39:12;;;;;;;1.80;1.70;;;19.90;69.80;;;;;;4951984;28;20422;-75
2023/03/21 11:41:40;;;;;;;1.60;1.50;;;19.70;72.00;;;;;;4958555;28;20479;-79
2023/03/21 11:44:22;;;;;;;1.93;1.83;;;19.50;70.80;;;;;;4957736;28;20427;-76
2023/03/21 11:46:48;;;;;;;1.70;1.60;;;19.30;72.00;;;;;;4959222;28;20878;-72
2023/03/21 11:49:13;;;;;;;1.87;1.73;;;19.40;71.80;;;;;;4958301;28;20491;-78
2023/03/21 11:51:56;;;;;;;1.70;1.60;;;19.50;71.60;;;;;;4958305;28;20807;-78
2023/03/21 11:54:43;;;;;;;1.70;1.60;;;19.30;74.10;;;;;;4956441;28;20583;-78
2023/03/21 11:57:39;;;;;;;2.70;2.10;;;19.20;73.80;;;;;;4958221;28;20454;-77
2023/03/21 12:00:31;;;;;;;1.57;1.47;;;19.10;74.10;;;;;;4958109;28;20455;-80
2023/03/21 12:03:10;;;;;;;1.70;1.60;;;18.90;73.60;;;;;;4957760;28;20424;-80
2023/03/21 12:05:53;;;;;;;2.27;2.07;;;18.80;74.90;;;;;;4958346;28;20862;-80
2023/03/21 12:08:58;;;;;;;2.57;2.03;;;18.90;76.00;;;;;;4957790;28;20422;-77
2023/03/21 12:11:44;;;;;;;3.93;2.23;;;18.70;75.90;;;;;;4957670;29;20421;-78
2023/03/21 12:14:29;;;;;;;1.57;1.47;;;18.60;76.10;;;;;;4917425;29;20548;-77
2023/03/21 12:17:21;;;;;;;1.80;1.70;;;18.50;74.80;;;;;;4900598;29;20428;-79
2023/03/21 12:20:08;;;;;;;1.70;1.60;;;18.60;74.50;;;;;;4917651;29;20826;-78
2023/03/21 12:23:14;;;;;;;2.17;2.00;;;18.70;75.70;;;;;;4901244;29;20865;-78
2023/03/21 12:25:48;;;;;;;2.10;1.60;;;18.60;77.00;;;;;;4917202;29;20440;-78
2023/03/21 12:28:32;;;;;;;2.00;1.80;;;18.40;78.10;;;;;;4915333;29;20518;-76
2023/03/21 12:31:14;;;;;;;2.23;1.80;;;18.20;77.40;;;;;;4901183;29;20450;-76
2023/03/21 12:33:49;;;;;;;2.10;2.00;;;18.00;78.20;;;;;;4917834;29;20986;-75
2023/03/21 12:36:41;;;;;;;3.07;2.70;;;17.80;78.40;;;;;;4901130;29;20429;-77
2023/03/21 12:39:27;;;;;;;2.10;1.90;;;17.60;80.70;;;;;;4916992;29;20530;-76
2023/03/21 12:42:11;;;;;;;2.60;2.50;;;17.50;79.80;;;;;;4917212;29;20573;-77
2023/03/21 12:44:40;;;;;;;3.50;2.00;;;17.30;80.50;;;;;;4899790;29;20491;-75
2023/03/21 12:47:25;;;;;;;2.47;2.27;;;17.30;80.60;;;;;;4914025;29;20927;-78
2023/03/21 12:50:27;;;;;;;2.43;2.23;;;17.20;80.80;;;;;;4898275;29;20520;-76
2023/03/21 12:53:05;;;;;;;1.90;1.60;;;17.20;81.10;;;;;;4936728;29;20487;-77
2023/03/21 12:55:34;;;;;;;2.00;1.90;;;17.30;81.40;;;;;;4937817;29;20408;-78
2023/03/21 12:58:13;;;;;;;2.70;2.13;;;17.40;80.60;;;;;;4943772;29;20433;-76
2023/03/21 13:00:55;;;;;;;1.90;1.80;;;17.40;81.00;;;;;;4956261;28;20826;-76
2023/03/21 13:03:44;;;;;;;2.20;2.10;;;17.40;81.10;;;;;;4955077;29;20479;-76
2023/03/21 13:06:17;;;;;;;2.00;1.90;;;17.40;80.70;;;;;;4955303;29;20976;-76
2023/03/21 13:09:08;;;;;;;2.50;2.30;;;17.40;80.70;;;;;;4956756;28;20914;-76
2023/03/21 13:11:34;;;;;;;2.33;2.13;;;17.30;80.70;;;;;;4956465;28;20436;-75
2023/03/21 13:14:22;;;;;;;8.03;2.40;;;17.40;81.00;;;;;;4956172;28;20531;-74
2023/03/21 13:16:54;;;;;;;2.43;2.23;;;17.50;80.80;;;;;;4956739;28;20413;-73
2023/03/21 13:19:47;;;;;;;2.00;1.90;;;17.50;81.00;;;;;;4956626;28;20416;-71
2023/03/21 13:22:28;;;;;;;2.27;2.17;;;17.50;80.30;;;;;;4956621;29;20448;-72
2023/03/21 13:25:02;;;;;;;2.97;2.20;;;17.50;82.50;;;;;;4954406;28;20538;-72
2023/03/21 13:27:35;;;;;;;3.90;2.47;;;17.50;81.80;;;;;;4954688;28;20956;-72
2023/03/21 13:30:13;;;;;;;1.90;1.80;;;17.60;81.20;;;;;;4956363;28;20419;-71
2023/03/21 13:32:44;;;;;;;1.90;1.80;;;17.70;80.60;;;;;;4954531;28;20539;-71
2023/03/21 13:35:26;;;;;;;2.33;2.10;;;17.80;80.10;;;;;;4954588;28;20450;-73
2023/03/21 13:37:58;;;;;;;2.20;2.10;;;17.80;78.80;;;;;;4956222;28;20409;-72
2023/03/21 13:40:28;;;;;;;1.97;1.83;;;17.80;78.60;;;;;;4956429;28;20405;-72
2023/03/21 13:42:58;;;;;;;2.30;2.10;;;17.90;78.60;;;;;;4956208;28;20411;-72
2023/03/21 13:45:32;;;;;;;2.60;2.40;;;18.10;81.30;;;;;;4954390;28;20839;-73
2023/03/21 13:48:24;;;;;;;2.77;2.57;;;18.10;80.70;;;;;;4955979;28;20504;-71
2023/03/21 13:50:53;;;;;;;2.50;2.40;;;18.20;81.90;;;;;;4955794;28;20386;-72
2023/03/21 13:53:23;;;;;;;3.40;2.27;;;18.30;82.10;;;;;;4954349;28;20471;-72
2023/03/21 13:56:18;;;;;;;2.70;2.10;;;18.30;80.00;;;;;;4955754;28;20395;-71
2023/03/21 13:58:44;;;;;;;2.73;2.53;;;18.40;80.70;;;;;;4955797;28;20409;-71
2023/03/21 14:01:34;;;;;;;4.90;2.30;;;18.30;80.50;;;;;;4955198;28;20480;-72
2023/03/21 14:04:03;;;;;;;6.87;3.23;;;18.20;80.50;;;;;;4955444;28;20432;-72
2023/03/21 14:06:34;;;;;;;3.60;3.30;;;18.10;82.20;;;;;;4955494;28;20427;-72
2023/03/21 14:09:02;;;;;;;7.40;2.83;;;18.00;82.10;;;;;;4955854;28;20397;-71
2023/03/21 14:11:30;;;;;;;2.40;2.20;;;17.90;83.40;;;;;;4955691;28;20463;-72
2023/03/21 14:13:59;;;;;;;2.73;2.33;;;17.80;82.80;;;;;;4954809;28;20460;-72
2023/03/21 14:16:27;;;;;;;2.40;2.20;;;17.70;82.40;;;;;;4955693;28;20384;-73
2023/03/21 14:19:03;;;;;;;3.17;2.00;;;17.70;83.30;;;;;;4955716;28;20800;-71
2023/03/21 14:21:32;;;;;;;3.20;1.93;;;17.50;82.20;;;;;;4955415;28;20404;-73
2023/03/21 14:24:02;;;;;;;9.13;2.87;;;17.60;82.90;;;;;;4955098;28;20399;-71
2023/03/21 14:26:32;;;;;;;2.30;2.10;;;17.50;83.20;;;;;;4955499;28;20378;-72
2023/03/21 14:29:00;;;;;;;2.23;2.13;;;17.40;83.30;;;;;;4955468;28;20424;-72
2023/03/21 14:31:26;;;;;;;2.13;1.97;;;17.40;82.70;;;;;;4955089;28;20814;-72
2023/03/21 14:33:56;;;;;;;2.30;2.10;;;17.20;82.30;;;;;;4955104;28;20457;-71
2023/03/21 14:36:33;;;;;;;2.27;2.07;;;17.20;82.40;;;;;;4955235;28;20880;-72
2023/03/21 14:39:36;;;;;;;3.27;2.97;;;17.10;83.90;;;;;;4954816;28;20751;-72
2023/03/21 14:42:03;;;;;;;3.93;2.43;;;17.00;83.80;;;;;;4955139;28;20412;-71
2023/03/21 14:44:40;;;;;;;3.53;2.70;;;17.00;84.20;;;;;;4954423;28;20518;-71
2023/03/21 14:47:15;;;;;;;3.10;2.80;;;17.00;84.50;;;;;;4955609;28;20408;-72
2023/03/21 14:49:41;;;;;;;8.37;4.10;;;17.10;84.50;;;;;;4955050;28;20386;-72
2023/03/21 14:52:12;;;;;;;2.73;2.53;;;17.20;85.10;;;;;;4955124;28;20439;-73
2023/03/21 14:54:45;;;;;;;3.07;2.70;;;17.20;85.10;;;;;;4953258;28;20850;-73
2023/03/21 14:57:16;;;;;;;2.20;2.00;;;17.20;85.00;;;;;;4955367;28;20416;-71
2023/03/21 14:59:41;;;;;;;2.07;1.97;;;17.30;84.50;;;;;;4954038;28;20432;-72
2023/03/21 15:02:22;;;;;;;2.60;2.40;;;17.30;85.00;;;;;;4954526;28;20455;-72
2023/03/21 15:04:55;;;;;;;1.77;1.67;;;17.40;85.10;;;;;;4954658;28;20666;-72
2023/03/21 15:07:31;;;;;;;3.87;1.93;;;17.40;84.80;;;;;;4953672;28;20440;-70
2023/03/21 15:10:02;;;;;;;2.80;2.20;;;17.30;84.90;;;;;;4955064;28;20390;-73
2023/03/21 15:12:27;;;;;;;2.67;1.47;;;17.30;84.80;;;;;;4955071;28;20902;-72
2023/03/21 15:14:53;;;;;;;2.23;2.03;;;17.20;84.00;;;;;;4954349;28;20513;-73
2023/03/21 15:17:20;;;;;;;2.20;2.00;;;17.20;85.00;;;;;;4954778;28;20694;-72
2023/03/21 15:19:45;;;;;;;2.57;2.30;;;17.20;84.40;;;;;;4955510;28;20416;-71
2023/03/21 15:22:36;;;;;;;2.23;1.63;;;17.10;84.40;;;;;;4955190;28;20470;-71
2023/03/21 15:25:05;;;;;;;2.90;1.67;;;17.10;85.20;;;;;;4954664;28;20523;-72
2023/03/21 15:27:35;;;;;;;1.70;1.60;;;17.10;83.50;;;;;;4954576;28;20498;-72
2023/03/21 15:30:01;;;;;;;5.80;2.50;;;17.00;84.30;;;;;;4937840;29;20425;-73
2023/03/21 15:32:27;;;;;;;2.20;2.10;;;17.00;85.30;;;;;;4954969;28;20418;-72
2023/03/21 15:35:02;;;;;;;2.13;2.03;;;16.90;84.10;;;;;;4954685;28;20197;-72
2023/03/21 15:37:35;;;;;;;2.00;1.80;;;16.80;84.10;;;;;;4954917;28;20467;-72
2023/03/21 15:40:13;;;;;;;1.93;1.80;;;16.70;84.00;;;;;;4954605;28;20442;-73
2023/03/21 15:42:40;;;;;;;1.70;1.60;;;16.60;84.30;;;;;;4954895;28;20414;-72
2023/03/21 15:45:28;;;;;;;2.10;1.90;;;16.50;84.40;;;;;;4954243;28;20446;-71
2023/03/21 15:47:59;;;;;;;2.60;2.37;;;16.40;86.10;;;;;;4954723;28;20411;-71
2023/03/21 15:50:32;;;;;;;2.20;1.53;;;16.30;88.30;;;;;;4956377;28;20377;-73
2023/03/21 15:53:00;;;;;;;3.33;2.30;;;16.30;89.80;;;;;;4957670;28;20481;-74
2023/03/21 15:55:35;;;;;;;2.10;2.00;;;16.20;90.50;;;;;;4958019;29;20483;-70
2023/03/21 15:58:08;;;;;;;3.17;1.93;;;16.00;90.40;;;;;;4958263;28;20413;-71
2023/03/21 16:00:39;;;;;;;4.90;2.83;;;16.00;90.80;;;;;;4958286;28;20540;-71
2023/03/21 16:03:33;;;;;;;2.67;2.47;;;15.90;91.40;;;;;;4957512;28;20489;-72
2023/03/21 16:06:03;;;;;;;7.13;5.27;;;15.80;91.80;;;;;;4953618;29;20824;-71
2023/03/21 16:08:36;;;;;;;2.87;2.40;;;15.70;92.20;;;;;;4957490;28;20477;-72
2023/03/21 16:11:07;;;;;;;2.03;1.70;;;15.70;92.20;;;;;;4958140;28;20429;-71
2023/03/21 16:13:32;;;;;;;8.77;2.23;;;15.50;92.10;;;;;;4957330;28;20454;-71
2023/03/21 16:15:58;;;;;;;2.27;2.07;;;15.40;92.30;;;;;;4957124;28;20428;-71
2023/03/21 16:18:24;;;;;;;4.63;2.10;;;15.40;92.20;;;;;;4957680;28;20521;-72
2023/03/21 16:20:49;;;;;;;3.77;2.27;;;15.30;92.20;;;;;;4957764;28;20276;-71
2023/03/21 16:23:16;;;;;;;6.37;2.10;;;15.20;92.70;;;;;;4957010;28;21000;-72
2023/03/21 16:25:45;;;;;;;2.03;1.90;;;15.10;93.00;;;;;;4956465;28;20671;-70
2023/03/21 16:28:15;;;;;;;3.23;2.03;;;15.00;93.40;;;;;;4956213;28;20479;-71
2023/03/21 16:30:41;;;;;;;2.43;2.23;;;15.00;93.60;;;;;;4957379;28;20413;-70
2023/03/21 16:33:10;;;;;;;2.00;1.90;;;14.90;93.80;;;;;;4956461;28;20463;-71
2023/03/21 16:35:35;;;;;;;3.17;2.23;;;14.80;93.70;;;;;;4957092;28;20186;-71
2023/03/21 16:38:02;;;;;;;3.90;2.33;;;14.90;94.00;;;;;;4957314;28;20421;-71
2023/03/21 16:40:34;;;;;;;3.53;2.60;;;14.80;94.00;;;;;;4957404;28;20175;-71
2023/03/21 16:42:59;;;;;;;2.10;2.00;;;14.70;94.20;;;;;;4956920;28;20408;-72
2023/03/21 16:45:27;;;;;;;3.90;3.60;;;14.70;94.40;;;;;;4957140;28;20432;-72
2023/03/21 16:47:53;;;;;;;3.63;3.13;;;14.60;94.30;;;;;;4955497;28;20646;-70
2023/03/21 16:50:24;;;;;;;8.83;3.30;;;14.60;94.50;;;;;;4956659;28;20410;-71
2023/03/21 16:52:51;;;;;;;2.50;2.33;;;14.50;94.60;;;;;;4956896;28;20436;-72
2023/03/21 16:55:17;;;;;;;5.20;2.23;;;14.50;94.90;;;;;;4956421;28;20429;-72
2023/03/21 16:57:44;;;;;;;4.73;2.60;;;14.40;95.00;;;;;;4955917;29;20911;-71
2023/03/21 17:00:19;;;;;;;3.70;2.73;;;14.40;94.80;;;;;;4955697;28;20807;-71
2023/03/21 17:02:45;;;;;;;3.20;2.10;;;14.30;95.20;;;;;;4955736;28;20546;-69
2023/03/21 17:05:11;;;;;;;2.97;2.77;;;14.30;95.10;;;;;;4956123;28;20739;-71
2023/03/21 17:07:37;;;;;;;4.10;2.90;;;14.30;95.10;;;;;;4956294;28;20414;-72
2023/03/21 17:10:03;;;;;;;1.97;1.87;;;14.30;95.10;;;;;;4956446;28;20183;-71
2023/03/21 17:12:29;;;;;;;2.37;2.17;;;14.30;95.20;;;;;;4955096;28;20428;-71
2023/03/21 17:14:54;;;;;;;2.43;2.33;;;14.20;95.10;;;;;;4955536;28;20460;-72
2023/03/21 17:17:20;;;;;;;4.20;2.70;;;14.20;95.20;;;;;;4955611;28;20181;-69
2023/03/21 17:19:47;;;;;;;2.43;2.23;;;14.20;95.30;;;;;;4956111;28;20608;-70
2023/03/21 17:22:13;;;;;;;3.17;2.77;;;14.20;95.50;;;;;;4955409;28;20451;-69
2023/03/21 17:24:39;;;;;;;5.57;2.80;;;14.20;95.60;;;;;;4955148;28;20211;-70
2023/03/21 17:27:07;;;;;;;2.60;2.43;;;14.10;95.70;;;;;;4956378;28;20252;-74
2023/03/21 17:29:32;;;;;;;2.50;2.33;;;14.10;95.90;;;;;;4956048;28;20192;-73
2023/03/21 17:31:58;;;;;;;2.50;2.30;;;14.10;95.70;;;;;;4956180;28;20416;-70
2023/03/21 17:34:24;;;;;;;3.73;2.60;;;14.10;95.80;;;;;;4955819;28;20291;-70
2023/03/21 17:36:50;;;;;;;2.47;2.27;;;14.10;95.80;;;;;;4954844;28;20596;-70
2023/03/21 17:39:21;;;;;;;2.30;2.10;;;14.10;96.00;;;;;;4956312;28;20467;-71
2023/03/21 17:41:47;;;;;;;8.03;2.80;;;14.10;95.90;;;;;;4955635;28;20219;-68
2023/03/21 17:44:13;;;;;;;3.00;2.40;;;14.10;95.80;;;;;;4955803;28;20425;-72
2023/03/21 17:46:38;;;;;;;3.80;2.70;;;14.10;95.90;;;;;;4955492;28;20443;-71
2023/03/21 17:49:05;;;;;;;2.50;2.00;;;14.10;96.10;;;;;;4956294;28;20539;-70
2023/03/21 17:51:31;;;;;;;2.40;2.20;;;14.10;96.10;;;;;;4954959;28;20185;-74
2023/03/21 17:53:58;;;;;;;1.83;1.73;;;14.00;96.30;;;;;;4954957;29;20597;-72
2023/03/21 17:56:29;;;;;;;3.27;2.87;;;14.00;96.30;;;;;;4954511;28;20414;-69
2023/03/21 17:58:57;;;;;;;2.30;2.10;;;14.00;96.50;;;;;;4949370;28;20507;-69
2023/03/21 18:01:23;;;;;;;2.80;2.60;;;14.00;96.80;;;;;;4935393;29;20548;-69
2023/03/21 18:03:49;;;;;;;2.70;2.50;;;14.00;96.60;;;;;;4942017;29;20460;-71
2023/03/21 18:06:18;;;;;;;3.23;2.90;;;14.00;96.70;;;;;;4955541;28;20672;-75
2023/03/21 18:08:44;;;;;;;2.50;2.30;;;14.00;96.70;;;;;;4955290;28;20431;-73
2023/03/21 18:11:11;;;;;;;2.30;2.10;;;14.00;96.80;;;;;;4953975;28;20874;-71
2023/03/21 18:13:38;;;;;;;3.27;2.60;;;14.00;96.90;;;;;;4953760;28;20463;-71